Main page
METAR-TAF:

METAR-TAF

Airports :

Harbin Taiping International Airport

Harbin, China

latitude: 45-45N, longitude: 126-46E, elevation: 143 m

Current weather observation

The report was made 44 minutes ago, at 12:00 UTC
Wind 4 kt from the South
Temperature 2°C
Humidity 55%
Pressure 1024 hPa
Visibility 10 km or more
no clouds below 1500 m and no cumulonimbus

METAR: ZYHB 181200Z 19002MPS CAVOK 02/M06 Q1024 NOSIG

Time: 20:44 (12:44 UTC)

Forecast

The report was made 3 hours and 43 minutes ago, at 09:01 UTC
Forecast valid from 18 at 12 UTC to 19 at 12 UTC
Wind 8 kt from the Southwest
Visibility: 6000 m
Few clouds at a height of 3300 ft

TAF: ZYHB 180901Z 1812/1912 23004MPS 6000 FEW033 TX17/1906Z TN01/1821Z

Weather observations and forecasts of more than 4000 airports (METAR and TAF reports).

The available stations are represented by yellow and red dots on the map.

Hover mouse over dot to see the name of the station.

Then click to see weather observations and forecasts.

To change the map : click on the green buttons with a black cross to zoom in, on the green button with a dash to zoom out, or on the green arrows for adjacent maps.


METAR-TAF: